sensor_id;sensor_type;location;lat;lon;timestamp;pressure;altitude;pressure_sealevel;temperature;humidity
51261;BME280;61705;46.228;24.812;2024-03-08T00:00:11;97785.28;;;2.86;100.00
51261;BME280;61705;46.228;24.812;2024-03-08T00:02:41;97792.16;;;2.95;100.00
51261;BME280;61705;46.228;24.812;2024-03-08T00:05:08;97792.06;;;3.01;100.00
51261;BME280;61705;46.228;24.812;2024-03-08T00:07:35;97788.66;;;2.96;100.00
51261;BME280;61705;46.228;24.812;2024-03-08T00:10:03;97779.91;;;2.97;100.00
51261;BME280;61705;46.228;24.812;2024-03-08T00:12:29;97786.03;;;2.96;100.00
51261;BME280;61705;46.228;24.812;2024-03-08T00:14:56;97786.97;;;2.92;100.00
51261;BME280;61705;46.228;24.812;2024-03-08T00:17:23;97777.47;;;2.88;100.00
51261;BME280;61705;46.228;24.812;2024-03-08T00:19:50;97776.53;;;2.90;100.00
51261;BME280;61705;46.228;24.812;2024-03-08T00:22:17;97782.75;;;2.81;100.00
51261;BME280;61705;46.228;24.812;2024-03-08T00:24:43;97786.22;;;2.82;100.00
51261;BME280;61705;46.228;24.812;2024-03-08T00:27:10;97774.84;;;2.88;100.00
51261;BME280;61705;46.228;24.812;2024-03-08T00:29:37;97779.28;;;2.81;100.00
51261;BME280;61705;46.228;24.812;2024-03-08T00:32:07;97781.94;;;2.76;100.00
51261;BME280;61705;46.228;24.812;2024-03-08T00:34:37;97774.13;;;2.75;100.00
51261;BME280;61705;46.228;24.812;2024-03-08T00:37:04;97778.44;;;2.79;100.00
51261;BME280;61705;46.228;24.812;2024-03-08T00:39:31;97780.19;;;2.78;100.00
51261;BME280;61705;46.228;24.812;2024-03-08T00:41:58;97781.03;;;2.79;100.00
51261;BME280;61705;46.228;24.812;2024-03-08T00:44:24;97777.56;;;2.77;100.00
51261;BME280;61705;46.228;24.812;2024-03-08T00:46:51;97779.34;;;2.75;100.00
51261;BME280;61705;46.228;24.812;2024-03-08T00:49:20;97781.09;;;2.73;100.00
51261;BME280;61705;46.228;24.812;2024-03-08T00:51:48;97778.47;;;2.76;100.00
51261;BME280;61705;46.228;24.812;2024-03-08T00:54:14;97773.34;;;2.68;100.00
51261;BME280;61705;46.228;24.812;2024-03-08T00:56:42;97769.78;;;2.75;100.00
51261;BME280;61705;46.228;24.812;2024-03-08T00:59:09;97770.63;;;2.76;100.00
51261;BME280;61705;46.228;24.812;2024-03-08T01:01:36;97775.91;;;2.71;100.00
51261;BME280;61705;46.228;24.812;2024-03-08T01:04:02;97764.56;;;2.75;100.00
51261;BME280;61705;46.228;24.812;2024-03-08T01:06:29;97762.88;;;2.70;100.00
51261;BME280;61705;46.228;24.812;2024-03-08T01:08:56;97766.44;;;2.64;100.00
51261;BME280;61705;46.228;24.812;2024-03-08T01:11:23;97765.63;;;2.60;100.00
51261;BME280;61705;46.228;24.812;2024-03-08T01:13:50;97762.09;;;2.63;100.00
51261;BME280;61705;46.228;24.812;2024-03-08T01:16:17;97769.06;;;2.64;100.00
51261;BME280;61705;46.228;24.812;2024-03-08T01:18:43;97761.25;;;2.61;100.00
51261;BME280;61705;46.228;24.812;2024-03-08T01:21:10;97763.94;;;2.56;100.00
51261;BME280;61705;46.228;24.812;2024-03-08T01:23:37;97762.16;;;2.58;100.00
51261;BME280;61705;46.228;24.812;2024-03-08T01:26:04;97765.63;;;2.60;100.00
51261;BME280;61705;46.228;24.812;2024-03-08T01:28:30;97769.06;;;2.63;100.00
51261;BME280;61705;46.228;24.812;2024-03-08T01:30:58;97769.13;;;2.58;100.00
51261;BME280;61705;46.228;24.812;2024-03-08T01:33:25;97766.56;;;2.55;100.00
51261;BME280;61705;46.228;24.812;2024-03-08T01:35:53;97771.03;;;2.44;100.00
51261;BME280;61705;46.228;24.812;2024-03-08T01:38:20;97774.56;;;2.38;100.00
51261;BME280;61705;46.228;24.812;2024-03-08T01:40:50;97771.88;;;2.47;100.00
51261;BME280;61705;46.228;24.812;2024-03-08T01:43:21;97770.09;;;2.49;100.00
51261;BME280;61705;46.228;24.812;2024-03-08T01:45:48;97775.41;;;2.42;100.00
51261;BME280;61705;46.228;24.812;2024-03-08T01:48:15;97775.50;;;2.34;100.00
51261;BME280;61705;46.228;24.812;2024-03-08T01:50:44;97773.75;;;2.34;100.00
51261;BME280;61705;46.228;24.812;2024-03-08T01:53:11;97773.84;;;2.27;100.00
51261;BME280;61705;46.228;24.812;2024-03-08T01:55:41;97778.16;;;2.29;100.00
51261;BME280;61705;46.228;24.812;2024-03-08T01:58:09;97777.25;;;2.32;100.00
51261;BME280;61705;46.228;24.812;2024-03-08T02:00:36;97774.50;;;2.44;100.00
51261;BME280;61705;46.228;24.812;2024-03-08T02:03:06;97774.53;;;2.41;100.00
51261;BME280;61705;46.228;24.812;2024-03-08T02:05:33;97771.13;;;2.34;100.00
51261;BME280;61705;46.228;24.812;2024-03-08T02:08:00;97766.03;;;2.27;100.00
51261;BME280;61705;46.228;24.812;2024-03-08T02:10:27;97769.53;;;2.23;100.00
51261;BME280;61705;46.228;24.812;2024-03-08T02:12:53;97767.81;;;2.20;100.00
51261;BME280;61705;46.228;24.812;2024-03-08T02:15:20;97763.50;;;2.19;100.00
51261;BME280;61705;46.228;24.812;2024-03-08T02:17:47;97764.41;;;2.17;100.00
51261;BME280;61705;46.228;24.812;2024-03-08T02:20:15;97765.25;;;2.17;100.00
51261;BME280;61705;46.228;24.812;2024-03-08T02:22:42;97766.16;;;2.13;100.00
51261;BME280;61705;46.228;24.812;2024-03-08T02:25:09;97766.13;;;2.19;100.00
51261;BME280;61705;46.228;24.812;2024-03-08T02:27:37;97764.34;;;2.23;100.00
51261;BME280;61705;46.228;24.812;2024-03-08T02:30:04;97765.22;;;2.20;100.00
51261;BME280;61705;46.228;24.812;2024-03-08T02:32:31;97765.22;;;2.19;100.00
51261;BME280;61705;46.228;24.812;2024-03-08T02:34:59;97761.75;;;2.20;100.00
51261;BME280;61705;46.228;24.812;2024-03-08T02:37:26;97764.31;;;2.26;100.00
51261;BME280;61705;46.228;24.812;2024-03-08T02:39:55;97761.69;;;2.26;100.00
51261;BME280;61705;46.228;24.812;2024-03-08T02:42:21;97759.91;;;2.28;100.00
51261;BME280;61705;46.228;24.812;2024-03-08T02:44:49;97761.72;;;2.23;100.00
51261;BME280;61705;46.228;24.812;2024-03-08T02:47:16;97760.81;;;2.25;100.00
51261;BME280;61705;46.228;24.812;2024-03-08T02:49:42;97765.19;;;2.23;100.00
51261;BME280;61705;46.228;24.812;2024-03-08T02:52:09;97759.09;;;2.24;100.00
51261;BME280;61705;46.228;24.812;2024-03-08T02:54:35;97755.69;;;2.18;100.00
51261;BME280;61705;46.228;24.812;2024-03-08T02:57:03;97757.41;;;2.20;100.00
51261;BME280;61705;46.228;24.812;2024-03-08T02:59:30;97757.38;;;2.22;100.00
51261;BME280;61705;46.228;24.812;2024-03-08T03:01:57;97766.94;;;2.23;100.00
51261;BME280;61705;46.228;24.812;2024-03-08T03:04:24;97758.19;;;2.25;100.00
51261;BME280;61705;46.228;24.812;2024-03-08T03:06:50;97758.16;;;2.28;100.00
51261;BME280;61705;46.228;24.812;2024-03-08T03:09:17;97761.56;;;2.35;100.00
51261;BME280;61705;46.228;24.812;2024-03-08T03:11:50;97757.19;;;2.38;100.00
51261;BME280;61705;46.228;24.812;2024-03-08T03:14:16;97758.88;;;2.43;100.00
51261;BME280;61705;46.228;24.812;2024-03-08T03:16:43;97762.34;;;2.45;100.00
51261;BME280;61705;46.228;24.812;2024-03-08T03:19:10;97752.75;;;2.47;100.00
51261;BME280;61705;46.228;24.812;2024-03-08T03:21:37;97757.97;;;2.45;100.00
51261;BME280;61705;46.228;24.812;2024-03-08T03:24:04;97759.66;;;2.49;100.00
51261;BME280;61705;46.228;24.812;2024-03-08T03:26:37;97757.97;;;2.47;100.00
51261;BME280;61705;46.228;24.812;2024-03-08T03:29:07;97751.81;;;2.51;100.00
51261;BME280;61705;46.228;24.812;2024-03-08T03:31:35;97756.25;;;2.44;100.00
51261;BME280;61705;46.228;24.812;2024-03-08T03:34:03;97757.13;;;2.45;100.00
51261;BME280;61705;46.228;24.812;2024-03-08T03:36:30;97755.41;;;2.42;100.00
51261;BME280;61705;46.228;24.812;2024-03-08T03:38:57;97755.41;;;2.42;100.00
51261;BME280;61705;46.228;24.812;2024-03-08T03:41:42;97762.41;;;2.38;100.00
51261;BME280;61705;46.228;24.812;2024-03-08T03:44:12;97763.22;;;2.44;100.00
51261;BME280;61705;46.228;24.812;2024-03-08T03:46:41;97764.13;;;2.41;100.00
51261;BME280;61705;46.228;24.812;2024-03-08T03:49:10;97758.88;;;2.43;100.00
51261;BME280;61705;46.228;24.812;2024-03-08T03:51:37;97762.34;;;2.45;100.00
51261;BME280;61705;46.228;24.812;2024-03-08T03:54:03;97766.72;;;2.41;100.00
51261;BME280;61705;46.228;24.812;2024-03-08T03:56:30;97764.94;;;2.45;100.00
51261;BME280;61705;46.228;24.812;2024-03-08T03:58:57;97767.53;;;2.46;100.00
51261;BME280;61705;46.228;24.812;2024-03-08T04:01:23;97758.00;;;2.44;100.00
51261;BME280;61705;46.228;24.812;2024-03-08T04:03:50;97763.25;;;2.39;100.00
51261;BME280;61705;46.228;24.812;2024-03-08T04:06:17;97765.88;;;2.41;100.00
51261;BME280;61705;46.228;24.812;2024-03-08T04:08:43;97765.94;;;2.36;100.00
51261;BME280;61705;46.228;24.812;2024-03-08T04:11:10;97765.03;;;2.35;100.00
51261;BME280;61705;46.228;24.812;2024-03-08T04:13:37;97767.66;;;2.32;100.00
51261;BME280;61705;46.228;24.812;2024-03-08T04:16:04;97766.91;;;2.24;100.00
51261;BME280;61705;46.228;24.812;2024-03-08T04:18:34;97768.72;;;2.19;100.00
51261;BME280;61705;46.228;24.812;2024-03-08T04:21:02;97771.25;;;2.24;100.00
51261;BME280;61705;46.228;24.812;2024-03-08T04:23:29;97772.88;;;2.32;100.00
51261;BME280;61705;46.228;24.812;2024-03-08T04:25:56;97773.00;;;2.23;100.00
51261;BME280;61705;46.228;24.812;2024-03-08T04:28:22;97773.88;;;2.22;100.00
51261;BME280;61705;46.228;24.812;2024-03-08T04:30:49;97771.22;;;2.27;100.00
51261;BME280;61705;46.228;24.812;2024-03-08T04:33:17;97770.25;;;2.37;100.00
51261;BME280;61705;46.228;24.812;2024-03-08T04:35:45;97774.47;;;2.46;100.00
51261;BME280;61705;46.228;24.812;2024-03-08T04:38:12;97772.72;;;2.48;100.00
51261;BME280;61705;46.228;24.812;2024-03-08T04:40:39;97774.47;;;2.47;100.00
51261;BME280;61705;46.228;24.812;2024-03-08T04:43:05;97769.22;;;2.50;100.00
51261;BME280;61705;46.228;24.812;2024-03-08T04:45:32;97780.56;;;2.48;100.00
51261;BME280;61705;46.228;24.812;2024-03-08T04:48:00;97772.72;;;2.48;100.00
51261;BME280;61705;46.228;24.812;2024-03-08T04:50:27;97776.22;;;2.47;100.00
51261;BME280;61705;46.228;24.812;2024-03-08T04:52:55;97774.47;;;2.46;100.00
51261;BME280;61705;46.228;24.812;2024-03-08T04:55:22;97778.00;;;2.43;100.00
51261;BME280;61705;46.228;24.812;2024-03-08T04:57:49;97778.88;;;2.44;100.00
51261;BME280;61705;46.228;24.812;2024-03-08T05:00:15;97773.63;;;2.47;100.00
51261;BME280;61705;46.228;24.812;2024-03-08T05:02:42;97770.91;;;2.54;100.00
51261;BME280;61705;46.228;24.812;2024-03-08T05:05:10;97772.66;;;2.54;100.00
51261;BME280;61705;46.228;24.812;2024-03-08T05:07:39;97777.81;;;2.58;100.00
51261;BME280;61705;46.228;24.812;2024-03-08T05:10:06;97777.78;;;2.61;100.00
51261;BME280;61705;46.228;24.812;2024-03-08T05:12:33;97780.31;;;2.66;100.00
51261;BME280;61705;46.228;24.812;2024-03-08T05:15:00;97776.00;;;2.65;100.00
51261;BME280;61705;46.228;24.812;2024-03-08T05:17:26;97781.22;;;2.65;100.00
51261;BME280;61705;46.228;24.812;2024-03-08T05:19:54;97779.44;;;2.69;100.00
51261;BME280;61705;46.228;24.812;2024-03-08T05:22:21;97776.75;;;2.75;100.00
51261;BME280;61705;46.228;24.812;2024-03-08T05:24:47;97789.66;;;2.85;100.00
51261;BME280;61705;46.228;24.812;2024-03-08T05:27:14;97780.06;;;2.88;100.00
51261;BME280;61705;46.228;24.812;2024-03-08T05:29:40;97782.69;;;2.88;100.00
51261;BME280;61705;46.228;24.812;2024-03-08T05:32:07;97786.88;;;2.98;100.00
51261;BME280;61705;46.228;24.812;2024-03-08T05:34:34;97780.72;;;3.02;100.00
51261;BME280;61705;46.228;24.812;2024-03-08T05:37:01;97788.53;;;3.03;100.00
51261;BME280;61705;46.228;24.812;2024-03-08T05:39:28;97800.72;;;3.04;100.00
51261;BME280;61705;46.228;24.812;2024-03-08T05:41:55;97800.53;;;3.17;100.00
51261;BME280;61705;46.228;24.812;2024-03-08T05:44:22;97802.28;;;3.16;100.00
51261;BME280;61705;46.228;24.812;2024-03-08T05:46:49;97795.19;;;3.24;100.00
51261;BME280;61705;46.228;24.812;2024-03-08T05:49:17;97796.03;;;3.26;100.00
51261;BME280;61705;46.228;24.812;2024-03-08T05:51:44;97806.38;;;3.36;100.00
51261;BME280;61705;46.228;24.812;2024-03-08T05:54:11;97807.19;;;3.38;100.00
51261;BME280;61705;46.228;24.812;2024-03-08T05:56:42;97809.84;;;3.36;100.00
51261;BME280;61705;46.228;24.812;2024-03-08T05:59:11;97815.78;;;3.46;100.00
51261;BME280;61705;46.228;24.812;2024-03-08T06:01:38;97814.66;;;3.62;100.00
51261;BME280;61705;46.228;24.812;2024-03-08T06:04:07;97813.69;;;3.69;100.00
51261;BME280;61705;46.228;24.812;2024-03-08T06:06:34;97819.81;;;3.67;100.00
51261;BME280;61705;46.228;24.812;2024-03-08T06:09:01;97817.25;;;3.64;100.00
51261;BME280;61705;46.228;24.812;2024-03-08T06:11:35;97818.16;;;3.63;100.00
51261;BME280;61705;46.228;24.812;2024-03-08T06:14:04;97815.47;;;3.66;100.00
51261;BME280;61705;46.228;24.812;2024-03-08T06:16:30;97815.28;;;3.78;100.00
51261;BME280;61705;46.228;24.812;2024-03-08T06:18:57;97815.16;;;3.86;100.00
51261;BME280;61705;46.228;24.812;2024-03-08T06:21:24;97819.47;;;3.88;100.00
51261;BME280;61705;46.228;24.812;2024-03-08T06:23:54;97820.22;;;3.95;100.00
51261;BME280;61705;46.228;24.812;2024-03-08T06:26:21;97823.59;;;4.01;100.00
51261;BME280;61705;46.228;24.812;2024-03-08T06:28:55;97820.84;;;4.09;100.00
51261;BME280;61705;46.228;24.812;2024-03-08T06:31:22;97819.91;;;4.13;100.00
51261;BME280;61705;46.228;24.812;2024-03-08T06:33:49;97822.59;;;4.09;100.00
51261;BME280;61705;46.228;24.812;2024-03-08T06:36:17;97817.47;;;4.02;100.00
51261;BME280;61705;46.228;24.812;2024-03-08T06:38:48;97819.84;;;4.18;100.00
51261;BME280;61705;46.228;24.812;2024-03-08T06:41:15;97819.69;;;4.25;100.00
51261;BME280;61705;46.228;24.812;2024-03-08T06:43:42;97814.25;;;4.36;100.00
51261;BME280;61705;46.228;24.812;2024-03-08T06:46:09;97815.88;;;4.45;100.00
51261;BME280;61705;46.228;24.812;2024-03-08T06:48:36;97815.91;;;4.42;100.00
51261;BME280;61705;46.228;24.812;2024-03-08T06:51:03;97806.50;;;4.32;100.00
51261;BME280;61705;46.228;24.812;2024-03-08T06:53:31;97814.91;;;4.49;100.00
51261;BME280;61705;46.228;24.812;2024-03-08T06:55:58;97810.16;;;4.69;100.00
51261;BME280;61705;46.228;24.812;2024-03-08T06:58:25;97808.38;;;4.70;100.00
51261;BME280;61705;46.228;24.812;2024-03-08T07:00:51;97813.50;;;4.76;100.00
51261;BME280;61705;46.228;24.812;2024-03-08T07:03:18;97812.59;;;4.79;100.00
51261;BME280;61705;46.228;24.812;2024-03-08T07:05:45;97813.97;;;4.95;100.00
51261;BME280;61705;46.228;24.812;2024-03-08T07:08:12;97809.31;;;5.09;100.00
51261;BME280;61705;46.228;24.812;2024-03-08T07:10:40;97817.69;;;5.27;100.00
51261;BME280;61705;46.228;24.812;2024-03-08T07:13:11;97817.00;;;5.17;98.55
51261;BME280;61705;46.228;24.812;2024-03-08T07:15:38;97819.50;;;5.23;98.45
51261;BME280;61705;46.228;24.812;2024-03-08T07:18:04;97815.38;;;5.13;97.49
51261;BME280;61705;46.228;24.812;2024-03-08T07:20:31;97814.72;;;5.02;95.36
51261;BME280;61705;46.228;24.812;2024-03-08T07:22:58;97820.56;;;5.14;96.52
51261;BME280;61705;46.228;24.812;2024-03-08T07:25:24;97827.06;;;5.37;95.38
51261;BME280;61705;46.228;24.812;2024-03-08T07:27:55;97819.69;;;5.53;94.42
51261;BME280;61705;46.228;24.812;2024-03-08T07:30:25;97813.66;;;5.49;93.74
51261;BME280;61705;46.228;24.812;2024-03-08T07:33:11;97826.56;;;5.58;94.08
51261;BME280;61705;46.228;24.812;2024-03-08T07:35:39;97819.56;;;5.59;93.03
51261;BME280;61705;46.228;24.812;2024-03-08T07:38:09;97819.28;;;5.71;92.20
51261;BME280;61705;46.228;24.812;2024-03-08T07:40:40;97818.19;;;5.80;91.91
51261;BME280;61705;46.228;24.812;2024-03-08T07:43:13;97818.69;;;5.58;90.45
51261;BME280;61705;46.228;24.812;2024-03-08T07:45:40;97811.69;;;5.59;90.51
51261;BME280;61705;46.228;24.812;2024-03-08T07:48:07;97817.78;;;5.61;90.38
51261;BME280;61705;46.228;24.812;2024-03-08T07:50:37;97815.16;;;5.59;90.59
51261;BME280;61705;46.228;24.812;2024-03-08T07:53:06;97818.81;;;5.89;91.37
51261;BME280;61705;46.228;24.812;2024-03-08T07:55:33;97827.63;;;5.87;90.14
51261;BME280;61705;46.228;24.812;2024-03-08T07:58:01;97820.31;;;6.01;90.31
51261;BME280;61705;46.228;24.812;2024-03-08T08:00:32;97818.03;;;6.22;90.18
51261;BME280;61705;46.228;24.812;2024-03-08T08:02:58;97821.28;;;5.97;88.11
51261;BME280;61705;46.228;24.812;2024-03-08T08:05:25;97819.25;;;6.08;87.79
51261;BME280;61705;46.228;24.812;2024-03-08T08:07:52;97818.44;;;6.06;88.46
51261;BME280;61705;46.228;24.812;2024-03-08T08:10:20;97822.22;;;6.29;88.03
51261;BME280;61705;46.228;24.812;2024-03-08T08:12:52;97822.75;;;6.43;87.58
51261;BME280;61705;46.228;24.812;2024-03-08T08:15:19;97814.78;;;6.46;87.13
51261;BME280;61705;46.228;24.812;2024-03-08T08:17:46;97811.09;;;6.53;86.96
51261;BME280;61705;46.228;24.812;2024-03-08T08:20:12;97812.81;;;6.54;87.14
51261;BME280;61705;46.228;24.812;2024-03-08T08:22:39;97813.03;;;6.47;86.39
51261;BME280;61705;46.228;24.812;2024-03-08T08:25:07;97825.19;;;6.16;86.69
51261;BME280;61705;46.228;24.812;2024-03-08T08:27:34;97822.16;;;6.32;86.83
51261;BME280;61705;46.228;24.812;2024-03-08T08:30:03;97831.69;;;6.36;87.94
51261;BME280;61705;46.228;24.812;2024-03-08T08:32:35;97823.25;;;6.23;86.45
51261;BME280;61705;46.228;24.812;2024-03-08T08:35:06;97821.13;;;6.70;86.55
51261;BME280;61705;46.228;24.812;2024-03-08T08:37:32;97820.28;;;6.99;85.52
51261;BME280;61705;46.228;24.812;2024-03-08T08:40:02;97821.38;;;6.92;84.99
51261;BME280;61705;46.228;24.812;2024-03-08T08:42:35;97818.00;;;6.87;84.49
51261;BME280;61705;46.228;24.812;2024-03-08T08:45:02;97822.16;;;6.96;84.23
51261;BME280;61705;46.228;24.812;2024-03-08T08:47:41;97809.44;;;7.11;82.96
51261;BME280;61705;46.228;24.812;2024-03-08T08:50:09;97810.22;;;7.15;82.96
51261;BME280;61705;46.228;24.812;2024-03-08T08:52:38;97817.81;;;7.24;82.03
51261;BME280;61705;46.228;24.812;2024-03-08T08:55:06;97807.34;;;7.23;81.58
51261;BME280;61705;46.228;24.812;2024-03-08T08:57:33;97802.72;;;7.01;81.52
51261;BME280;61705;46.228;24.812;2024-03-08T08:59:59;97801.34;;;7.18;81.83
51261;BME280;61705;46.228;24.812;2024-03-08T09:02:27;97797.41;;;7.32;81.44
51261;BME280;61705;46.228;24.812;2024-03-08T09:04:53;97803.88;;;7.22;81.26
51261;BME280;61705;46.228;24.812;2024-03-08T09:07:20;97796.94;;;7.48;81.91
51261;BME280;61705;46.228;24.812;2024-03-08T09:09:48;97806.16;;;7.33;81.63
51261;BME280;61705;46.228;24.812;2024-03-08T09:12:15;97800.72;;;7.39;81.79
51261;BME280;61705;46.228;24.812;2024-03-08T09:14:42;97798.44;;;7.56;81.80
51261;BME280;61705;46.228;24.812;2024-03-08T09:17:09;97790.13;;;7.69;81.14
51261;BME280;61705;46.228;24.812;2024-03-08T09:19:36;97793.19;;;7.55;80.53
51261;BME280;61705;46.228;24.812;2024-03-08T09:22:06;97795.91;;;7.52;80.83
51261;BME280;61705;46.228;24.812;2024-03-08T09:24:32;97796.38;;;7.66;78.99
51261;BME280;61705;46.228;24.812;2024-03-08T09:26:59;97796.75;;;7.54;78.66
51261;BME280;61705;46.228;24.812;2024-03-08T09:29:26;97799.84;;;7.67;78.95
51261;BME280;61705;46.228;24.812;2024-03-08T09:31:53;97793.59;;;7.97;78.87
51261;BME280;61705;46.228;24.812;2024-03-08T09:34:20;97785.50;;;7.77;77.23
51261;BME280;61705;46.228;24.812;2024-03-08T09:36:54;97795.78;;;8.11;77.29
51261;BME280;61705;46.228;24.812;2024-03-08T09:39:20;97778.00;;;7.91;76.43
51261;BME280;61705;46.228;24.812;2024-03-08T09:41:50;97781.13;;;8.02;76.90
51261;BME280;61705;46.228;24.812;2024-03-08T09:44:16;97778.75;;;8.21;76.14
51261;BME280;61705;46.228;24.812;2024-03-08T09:46:44;97781.50;;;7.92;75.66
51261;BME280;61705;46.228;24.812;2024-03-08T09:49:12;97781.97;;;8.04;75.54
51261;BME280;61705;46.228;24.812;2024-03-08T09:51:39;97781.34;;;8.73;74.55
51261;BME280;61705;46.228;24.812;2024-03-08T09:54:07;97772.81;;;8.66;73.82
51261;BME280;61705;46.228;24.812;2024-03-08T09:56:45;97775.63;;;8.35;74.39
51261;BME280;61705;46.228;24.812;2024-03-08T09:59:13;97776.16;;;8.46;75.16
51261;BME280;61705;46.228;24.812;2024-03-08T10:01:49;97776.00;;;8.74;75.51
51261;BME280;61705;46.228;24.812;2024-03-08T10:04:16;97774.78;;;8.60;75.28
51261;BME280;61705;46.228;24.812;2024-03-08T10:06:43;97783.31;;;8.16;75.27
51261;BME280;61705;46.228;24.812;2024-03-08T10:09:13;97782.66;;;8.10;75.44
51261;BME280;61705;46.228;24.812;2024-03-08T10:11:40;97773.97;;;8.07;76.06
51261;BME280;61705;46.228;24.812;2024-03-08T10:14:07;97779.91;;;7.86;76.89
51261;BME280;61705;46.228;24.812;2024-03-08T10:16:34;97777.81;;;7.97;77.06
51261;BME280;61705;46.228;24.812;2024-03-08T10:19:01;97773.88;;;7.84;77.29
51261;BME280;61705;46.228;24.812;2024-03-08T10:21:29;97775.72;;;8.59;76.36
51261;BME280;61705;46.228;24.812;2024-03-08T10:23:56;97772.97;;;8.10;74.39
51261;BME280;61705;46.228;24.812;2024-03-08T10:26:23;97773.50;;;7.95;76.37
51261;BME280;61705;46.228;24.812;2024-03-08T10:28:50;97765.78;;;7.90;76.71
51261;BME280;61705;46.228;24.812;2024-03-08T10:31:18;97764.69;;;8.47;76.46
51261;BME280;61705;46.228;24.812;2024-03-08T10:33:46;97760.66;;;8.62;74.74
51261;BME280;61705;46.228;24.812;2024-03-08T10:36:13;97765.53;;;7.96;74.67
51261;BME280;61705;46.228;24.812;2024-03-08T10:38:41;97754.88;;;8.01;76.20
51261;BME280;61705;46.228;24.812;2024-03-08T10:41:08;97759.66;;;8.65;75.49
51261;BME280;61705;46.228;24.812;2024-03-08T10:43:51;97745.06;;;8.31;73.44
51261;BME280;61705;46.228;24.812;2024-03-08T10:46:30;97749.19;;;8.63;74.07
51261;BME280;61705;46.228;24.812;2024-03-08T10:48:58;97752.50;;;9.15;72.38
51261;BME280;61705;46.228;24.812;2024-03-08T10:51:29;97741.53;;;9.04;71.03
51261;BME280;61705;46.228;24.812;2024-03-08T10:53:57;97737.59;;;8.69;72.22
51261;BME280;61705;46.228;24.812;2024-03-08T10:56:24;97735.13;;;8.88;71.59
51261;BME280;61705;46.228;24.812;2024-03-08T10:58:54;97733.59;;;9.28;70.64
51261;BME280;61705;46.228;24.812;2024-03-08T11:01:22;97729.47;;;9.20;69.72
51261;BME280;61705;46.228;24.812;2024-03-08T11:03:50;97728.53;;;9.43;69.13
51261;BME280;61705;46.228;24.812;2024-03-08T11:06:29;97723.78;;;8.86;68.87
51261;BME280;61705;46.228;24.812;2024-03-08T11:08:56;97715.25;;;9.24;68.96
51261;BME280;61705;46.228;24.812;2024-03-08T11:11:25;97718.09;;;8.96;68.02
51261;BME280;61705;46.228;24.812;2024-03-08T11:14:03;97706.78;;;9.16;69.85
51261;BME280;61705;46.228;24.812;2024-03-08T11:18:58;97704.97;;;9.40;68.52
51261;BME280;61705;46.228;24.812;2024-03-08T11:21:31;97703.06;;;9.44;67.65
51261;BME280;61705;46.228;24.812;2024-03-08T11:24:00;97706.84;;;9.59;68.16
51261;BME280;61705;46.228;24.812;2024-03-08T11:26:27;97695.50;;;9.77;67.27
51261;BME280;61705;46.228;24.812;2024-03-08T11:28:53;97691.28;;;9.31;68.16
51261;BME280;61705;46.228;24.812;2024-03-08T11:31:23;97686.28;;;9.23;68.32
51261;BME280;61705;46.228;24.812;2024-03-08T11:33:50;97688.03;;;9.24;68.58
51261;BME280;61705;46.228;24.812;2024-03-08T11:36:24;97691.84;;;9.81;68.41
51261;BME280;61705;46.228;24.812;2024-03-08T11:38:52;97682.28;;;9.99;66.73
51261;BME280;61705;46.228;24.812;2024-03-08T11:41:19;97688.31;;;9.81;67.23
51261;BME280;61705;46.228;24.812;2024-03-08T11:43:47;97685.34;;;9.68;67.66
51261;BME280;61705;46.228;24.812;2024-03-08T11:46:15;97694.25;;;9.43;68.13
51261;BME280;61705;46.228;24.812;2024-03-08T11:48:43;97676.72;;;9.42;68.45
51261;BME280;61705;46.228;24.812;2024-03-08T11:51:11;97674.97;;;9.63;68.51
51261;BME280;61705;46.228;24.812;2024-03-08T11:53:38;97676.13;;;9.99;68.29
51261;BME280;61705;46.228;24.812;2024-03-08T11:56:08;97669.13;;;9.97;67.58
51261;BME280;61705;46.228;24.812;2024-03-08T11:58:36;97671.00;;;9.95;67.58
51261;BME280;61705;46.228;24.812;2024-03-08T12:01:04;97676.31;;;9.73;67.75
51261;BME280;61705;46.228;24.812;2024-03-08T12:03:32;97670.91;;;9.77;66.59
51261;BME280;61705;46.228;24.812;2024-03-08T12:06:00;97667.63;;;9.71;65.88
51261;BME280;61705;46.228;24.812;2024-03-08T12:08:27;97664.63;;;9.79;66.40
51261;BME280;61705;46.228;24.812;2024-03-08T12:10:56;97662.47;;;9.68;66.24
51261;BME280;61705;46.228;24.812;2024-03-08T12:13:30;97664.19;;;9.27;66.40
51261;BME280;61705;46.228;24.812;2024-03-08T12:15:58;97662.75;;;8.96;67.94
51261;BME280;61705;46.228;24.812;2024-03-08T12:18:25;97655.28;;;9.08;67.59
51261;BME280;61705;46.228;24.812;2024-03-08T12:21:03;97651.44;;;9.16;68.16
51261;BME280;61705;46.228;24.812;2024-03-08T12:23:30;97652.78;;;9.27;68.27
51261;BME280;61705;46.228;24.812;2024-03-08T12:25:57;97659.44;;;9.35;67.58
51261;BME280;61705;46.228;24.812;2024-03-08T12:28:24;97645.47;;;9.54;67.61
51261;BME280;61705;46.228;24.812;2024-03-08T12:30:52;97650.50;;;9.80;67.29
51261;BME280;61705;46.228;24.812;2024-03-08T12:33:21;97644.25;;;9.62;67.20
51261;BME280;61705;46.228;24.812;2024-03-08T12:35:52;97642.34;;;9.66;67.64
51261;BME280;61705;46.228;24.812;2024-03-08T12:38:22;97652.63;;;9.30;66.75
51261;BME280;61705;46.228;24.812;2024-03-08T12:40:55;97649.63;;;9.39;68.13
51261;BME280;61705;46.228;24.812;2024-03-08T12:43:24;97645.94;;;9.63;67.85
51261;BME280;61705;46.228;24.812;2024-03-08T12:45:50;97640.81;;;9.81;67.34
51261;BME280;61705;46.228;24.812;2024-03-08T12:48:19;97630.84;;;9.67;66.73
51261;BME280;61705;46.228;24.812;2024-03-08T12:50:47;97634.88;;;9.76;66.72
51261;BME280;61705;46.228;24.812;2024-03-08T12:53:14;97632.47;;;9.91;66.80
51261;BME280;61705;46.228;24.812;2024-03-08T12:55:43;97627.72;;;9.98;65.91
51261;BME280;61705;46.228;24.812;2024-03-08T12:58:10;97631.25;;;9.99;65.97
51261;BME280;61705;46.228;24.812;2024-03-08T13:00:37;97625.97;;;10.19;65.74